Time;durP1;ratioP1;P1;durP2;ratioP2;P2;SDS_P1;SDS_P2;PMS_P1;PMS_P2;Temp;Humidity;BMP_temperature;BMP_pressure;BME280_temperature;BME280_humidity;BME280_pressure;Samples;Min_cycle;Max_cycle;Signal;HPM_P1;HPM_P2
2022/03/26 00:00:06;;;;;;;;;55.25;44.25;;;;;13.92;37.71;102243.06;4995618;28;45380;-71
2022/03/26 00:02:32;;;;;;;;;48.75;38.25;;;;;13.81;38.00;102224.38;4978532;28;45404;-71
2022/03/26 00:04:57;;;;;;;;;56.50;43.50;;;;;13.76;37.98;102234.63;4978021;28;45289;-70
2022/03/26 00:07:23;;;;;;;;;55.00;44.00;;;;;13.70;38.22;102228.81;4995804;28;46461;-71
2022/03/26 00:09:48;;;;;;;;;52.50;42.00;;;;;13.74;38.02;102244.59;4980141;28;45630;-72
2022/03/26 00:12:14;;;;;;;;;60.75;46.75;;;;;13.63;38.64;102233.00;4999623;28;45353;-71
2022/03/26 00:14:39;;;;;;;;;57.50;44.00;;;;;13.75;38.70;102256.97;4999198;28;45389;-71
2022/03/26 00:17:05;;;;;;;;;59.75;44.50;;;;;13.55;38.82;102238.09;4981264;28;48133;-71
2022/03/26 00:19:30;;;;;;;;;58.75;44.25;;;;;13.43;38.72;102212.41;4998565;28;45334;-71
2022/03/26 00:21:56;;;;;;;;;56.25;43.50;;;;;13.38;38.76;102233.28;4999570;28;45247;-72
2022/03/26 00:24:21;;;;;;;;;59.50;47.75;;;;;13.44;39.23;102229.28;4980443;28;45541;-69
2022/03/26 00:26:47;;;;;;;;;56.75;44.25;;;;;13.12;39.14;102178.47;4999260;28;45295;-70
2022/03/26 00:29:12;;;;;;;;;55.50;43.25;;;;;13.46;39.19;102235.34;4999327;28;45322;-71
2022/03/26 00:31:38;;;;;;;;;55.50;44.75;;;;;13.00;38.84;102170.47;4999408;28;46156;-72
2022/03/26 00:34:05;;;;;;;;;60.75;46.25;;;;;13.40;39.20;102234.84;4997361;28;45512;-70
2022/03/26 00:36:32;;;;;;;;;63.00;46.50;;;;;13.37;39.94;102228.94;4979433;28;46142;-70
2022/03/26 00:38:57;;;;;;;;;56.50;44.25;;;;;13.29;39.34;102237.59;4995345;28;45526;-71
2022/03/26 00:41:23;;;;;;;;;64.00;47.00;;;;;13.26;39.83;102231.66;4977542;28;45516;-69
2022/03/26 00:43:49;;;;;;;;;64.75;49.50;;;;;13.37;39.52;102253.81;4962011;28;45383;-71
2022/03/26 00:46:14;;;;;;;;;60.50;46.50;;;;;13.31;39.71;102240.13;4979912;28;46061;-70
2022/03/26 00:48:40;;;;;;;;;55.50;43.00;;;;;13.36;39.39;102236.09;4998896;28;45534;-71
2022/03/26 00:51:06;;;;;;;;;63.50;48.25;;;;;13.18;39.72;102224.22;4998534;28;45484;-69
2022/03/26 00:53:31;;;;;;;;;59.50;47.00;;;;;13.24;39.73;102246.94;4981569;28;45296;-69
2022/03/26 00:55:57;;;;;;;;;60.50;46.25;;;;;13.10;39.62;102224.84;4980126;28;48475;-67
2022/03/26 00:58:22;;;;;;;;;50.25;41.25;;;;;13.14;40.37;102229.94;4998592;28;45291;-70
2022/03/26 01:00:48;;;;;;;;;58.75;46.00;;;;;13.16;40.46;102249.34;4980745;28;45892;-70
2022/03/26 01:03:16;;;;;;;;;56.25;45.75;;;;;13.07;39.97;102230.44;4997643;28;45615;-71
2022/03/26 01:05:42;;;;;;;;;57.25;43.75;;;;;13.01;40.35;102246.06;4979481;28;47514;-68
2022/03/26 01:08:07;;;;;;;;;60.75;48.25;;;;;13.03;40.82;102242.34;4997354;28;45247;-68
2022/03/26 01:10:33;;;;;;;;;51.50;40.50;;;;;12.91;40.56;102219.28;4979889;28;45460;-71
2022/03/26 01:12:58;;;;;;;;;60.00;46.00;;;;;12.95;40.48;102236.75;4999013;28;45467;-68
2022/03/26 01:15:24;;;;;;;;;63.75;48.50;;;;;12.88;40.52;102230.22;4997639;28;46333;-70
2022/03/26 01:17:49;;;;;;;;;59.75;46.50;;;;;12.92;40.71;102242.34;4998046;28;45238;-71
2022/03/26 01:20:17;;;;;;;;;57.00;45.00;;;;;12.78;40.89;102221.22;4993142;28;45384;-73
2022/03/26 01:22:43;;;;;;;;;57.00;44.50;;;;;12.82;40.82;102221.84;4979073;28;45405;-70
2022/03/26 01:25:08;;;;;;;;;59.25;45.50;;;;;12.83;40.93;102216.41;4981955;28;46894;-69
2022/03/26 01:27:34;;;;;;;;;58.50;46.50;;;;;12.80;41.00;102200.59;4994682;28;45490;-71
2022/03/26 01:29:59;;;;;;;;;53.50;43.50;;;;;12.85;40.65;102206.44;4979904;28;45601;-69
2022/03/26 01:32:25;;;;;;;;;59.00;47.00;;;;;12.88;40.66;102227.53;4995496;28;45460;-68
2022/03/26 01:34:50;;;;;;;;;59.25;45.25;;;;;12.92;40.76;102226.31;4996601;28;46536;-70
2022/03/26 01:37:16;;;;;;;;;56.75;43.00;;;;;12.79;41.11;102233.59;4979280;28;45540;-79
2022/03/26 01:39:43;;;;;;;;;58.25;45.50;;;;;12.62;41.34;102186.09;4997722;28;45393;-68
2022/03/26 01:42:09;;;;;;;;;57.50;45.75;;;;;12.79;41.11;102205.09;4979632;28;45312;-70
2022/03/26 01:44:37;;;;;;;;;61.00;47.50;;;;;12.94;40.57;102220.84;4997729;28;45735;-72
2022/03/26 01:47:04;;;;;;;;;61.75;48.00;;;;;12.39;40.92;102134.53;4975118;28;45832;-69
2022/03/26 01:49:30;;;;;;;;;55.25;45.25;;;;;12.72;40.92;102203.91;4977314;28;45651;-68
2022/03/26 01:51:57;;;;;;;;;61.25;46.75;;;;;12.56;41.08;102202.56;4978606;28;45497;-71
2022/03/26 01:54:26;;;;;;;;;57.50;44.50;;;;;12.40;40.67;102150.41;4975615;28;45574;-68
2022/03/26 01:56:53;;;;;;;;;57.50;44.75;;;;;12.72;40.96;102203.03;4959096;28;45478;-70
2022/03/26 01:59:19;;;;;;;;;48.75;41.25;;;;;12.76;40.85;102204.50;4958289;28;45185;-70
2022/03/26 02:01:48;;;;;;;;;60.75;46.50;;;;;12.72;41.07;102205.72;4958952;28;45237;-70
2022/03/26 02:04:13;;;;;;;;;56.75;46.00;;;;;12.70;40.96;102205.00;4965770;28;45656;-70
2022/03/26 02:06:40;;;;;;;;;61.25;48.00;;;;;12.70;41.47;102196.97;4961160;28;45449;-69
2022/03/26 02:09:10;;;;;;;;;59.25;46.25;;;;;12.72;41.57;102198.56;4965300;28;45331;-68
2022/03/26 02:11:39;;;;;;;;;58.25;44.25;;;;;12.38;41.45;102155.03;4965317;28;45613;-69
2022/03/26 02:14:07;;;;;;;;;57.75;46.00;;;;;12.69;41.22;102208.63;4956604;28;45680;-69
2022/03/26 02:16:36;;;;;;;;;56.00;44.00;;;;;12.42;41.53;102175.16;4944242;28;45196;-69
2022/03/26 02:19:02;;;;;;;;;57.50;45.00;;;;;12.55;41.53;102190.19;4937913;28;45474;-69
2022/03/26 02:21:30;;;;;;;;;56.25;45.25;;;;;12.63;41.48;102207.31;4962507;28;45533;-69
2022/03/26 02:23:55;;;;;;;;;58.25;44.50;;;;;12.59;42.02;102203.16;4977856;28;45438;-70
2022/03/26 02:26:31;;;;;;;;;53.75;42.75;;;;;12.56;41.83;102198.06;4955779;28;46784;-70
2022/03/26 02:29:03;;;;;;;;;59.50;46.25;;;;;12.50;41.96;102209.22;4958784;28;45356;-70
2022/03/26 02:31:29;;;;;;;;;56.50;45.50;;;;;12.45;41.90;102190.94;4959571;28;45193;-68
2022/03/26 02:33:54;;;;;;;;;55.75;46.00;;;;;12.53;41.66;102208.13;4976961;28;45748;-72
2022/03/26 02:36:20;;;;;;;;;51.00;41.75;;;;;12.57;41.56;102205.09;4959581;28;45252;-71
2022/03/26 02:38:45;;;;;;;;;50.75;40.00;;;;;12.42;41.51;102175.16;4992936;28;45539;-70
2022/03/26 02:41:11;;;;;;;;;57.50;46.00;;;;;12.46;41.73;102192.63;4976830;28;47029;-69
2022/03/26 02:43:37;;;;;;;;;58.00;45.00;;;;;12.48;42.36;102193.34;4975991;28;49012;-70
2022/03/26 02:46:03;;;;;;;;;56.75;44.00;;;;;12.38;42.02;102189.69;4956229;28;45539;-70
2022/03/26 02:48:28;;;;;;;;;61.00;47.50;;;;;12.43;41.92;102186.69;4937878;28;45554;-69
2022/03/26 02:50:54;;;;;;;;;61.00;48.75;;;;;12.30;42.05;102191.28;4945034;28;45496;-70
2022/03/26 02:53:19;;;;;;;;;54.50;44.50;;;;;12.22;42.05;102183.88;4956523;28;47281;-70
2022/03/26 02:55:45;;;;;;;;;53.25;44.00;;;;;12.22;42.42;102181.22;4957067;28;45437;-70
2022/03/26 02:58:11;;;;;;;;;55.00;43.25;;;;;12.28;41.99;102194.06;4971332;28;45584;-70
2022/03/26 03:00:40;;;;;;;;;53.25;43.75;;;;;12.22;42.27;102183.03;4956895;28;45370;-70
2022/03/26 03:03:08;;;;;;;;;59.00;44.25;;;;;12.24;42.27;102191.75;4955746;28;48158;-72
2022/03/26 03:05:33;;;;;;;;;55.00;45.50;;;;;12.17;42.29;102183.38;4956146;28;45670;-70
2022/03/26 03:08:00;;;;;;;;;57.50;44.25;;;;;12.21;42.82;102191.97;4972003;28;45469;-72
2022/03/26 03:10:27;;;;;;;;;59.75;45.50;;;;;12.02;42.95;102198.75;4956265;28;46032;-71
2022/03/26 03:12:53;;;;;;;;;59.75;46.75;;;;;12.00;43.05;102189.16;4955034;28;48150;-70
2022/03/26 03:15:19;;;;;;;;;58.50;46.75;;;;;11.97;42.67;102184.91;4957353;28;45284;-69
2022/03/26 03:17:48;;;;;;;;;59.00;47.00;;;;;11.94;43.25;102189.63;4955541;28;45288;-70
2022/03/26 03:20:14;;;;;;;;;56.00;45.25;;;;;11.93;43.10;102188.78;4956680;28;45560;-69
2022/03/26 03:22:41;;;;;;;;;56.75;45.00;;;;;11.89;43.13;102182.00;4956473;28;46472;-69
2022/03/26 03:25:08;;;;;;;;;57.25;44.75;;;;;11.92;43.39;102196.91;4955763;28;45400;-69
2022/03/26 03:27:34;;;;;;;;;52.00;42.50;;;;;11.82;43.31;102170.97;4957289;28;45447;-69
2022/03/26 03:29:59;;;;;;;;;56.75;45.00;;;;;11.98;43.06;102196.41;4954728;28;45496;-70
2022/03/26 03:32:25;;;;;;;;;51.50;41.50;;;;;11.99;42.60;102198.97;4957441;28;45546;-70
2022/03/26 03:34:51;;;;;;;;;56.75;45.25;;;;;11.81;43.39;102173.72;4956596;28;46015;-71
2022/03/26 03:37:17;;;;;;;;;56.75;44.00;;;;;11.75;43.30;102167.03;4957449;28;45501;-70
2022/03/26 03:39:43;;;;;;;;;62.25;46.75;;;;;11.78;43.12;102181.91;4957232;28;45327;-72
2022/03/26 03:42:09;;;;;;;;;55.50;45.00;;;;;11.91;43.88;102189.88;4957065;28;45623;-69
2022/03/26 03:44:35;;;;;;;;;51.75;42.00;;;;;11.94;43.31;102189.63;4958088;28;45421;-73
2022/03/26 03:47:00;;;;;;;;;58.50;45.00;;;;;11.98;42.48;102191.09;4984062;28;45302;-70
2022/03/26 03:49:31;;;;;;;;;58.00;45.00;;;;;11.90;43.27;102182.84;4982426;28;45393;-69
2022/03/26 03:51:59;;;;;;;;;55.00;44.50;;;;;11.93;43.29;102191.44;4999562;28;45809;-70
2022/03/26 03:54:25;;;;;;;;;60.75;47.50;;;;;11.94;43.12;102198.47;4999931;28;45373;-70
2022/03/26 03:56:54;;;;;;;;;56.25;44.00;;;;;12.01;42.48;102190.84;4997661;28;45384;-71
2022/03/26 03:59:19;;;;;;;;;48.75;38.25;;;;;11.92;43.26;102188.91;5000038;28;45349;-68
2022/03/26 04:01:45;;;;;;;;;58.50;47.25;;;;;11.91;43.21;102197.88;4998913;28;46720;-70
2022/03/26 04:04:10;;;;;;;;;50.25;39.50;;;;;11.85;42.88;102189.38;4983864;28;46106;-70
2022/03/26 04:06:36;;;;;;;;;57.00;44.25;;;;;11.92;42.61;102199.56;4998666;28;45363;-71
2022/03/26 04:09:02;;;;;;;;;45.00;35.50;;;;;11.82;43.07;102213.59;4999698;28;45528;-69
2022/03/26 04:11:27;;;;;;;;;56.25;45.25;;;;;11.80;43.27;102199.53;4977684;28;47896;-69
2022/03/26 04:13:53;;;;;;;;;50.75;40.50;;;;;11.76;43.03;102202.50;4979943;28;45274;-68
2022/03/26 04:16:23;;;;;;;;;36.75;28.75;;;;;11.79;43.21;102197.81;4977261;28;45540;-70
2022/03/26 04:18:49;;;;;;;;;57.00;44.50;;;;;11.84;43.05;102202.81;4982406;28;45577;-69
2022/03/26 04:21:15;;;;;;;;;48.00;39.00;;;;;11.87;42.91;102206.09;4999259;28;45294;-68
2022/03/26 04:23:40;;;;;;;;;58.75;46.75;;;;;11.82;42.91;102192.28;4999159;28;45252;-69
2022/03/26 04:26:07;;;;;;;;;58.75;45.00;;;;;11.73;43.13;102198.25;4998438;28;45326;-70
2022/03/26 04:28:32;;;;;;;;;59.00;46.00;;;;;11.48;43.08;102155.81;4999412;28;45552;-70
2022/03/26 04:30:58;;;;;;;;;54.75;42.50;;;;;11.69;43.17;102183.47;4980029;28;48337;-69
2022/03/26 04:33:24;;;;;;;;;60.00;46.75;;;;;11.62;43.05;102189.41;4999376;28;45715;-70
2022/03/26 04:35:49;;;;;;;;;58.25;43.75;;;;;11.74;42.92;102207.97;4998385;28;45405;-70
2022/03/26 04:38:14;;;;;;;;;58.00;46.25;;;;;11.77;43.30;102207.72;4999357;28;45476;-70
2022/03/26 04:40:42;;;;;;;;;65.00;48.50;;;;;11.62;43.62;102198.25;4998164;28;46938;-70
2022/03/26 04:43:11;;;;;;;;;19.25;14.25;;;;;11.67;43.57;102209.38;4998458;28;45610;-71
2022/03/26 04:45:36;;;;;;;;;59.25;46.00;;;;;11.73;43.20;102210.75;5003964;28;45286;-68
2022/03/26 04:48:02;;;;;;;;;58.50;46.25;;;;;11.58;43.88;102194.94;4981814;28;45412;-70
2022/03/26 04:50:28;;;;;;;;;60.25;45.00;;;;;11.57;43.66;102195.91;4998443;28;45274;-70
2022/03/26 04:52:53;;;;;;;;;62.00;47.25;;;;;11.61;43.76;102201.84;4980938;28;45536;-68
2022/03/26 04:55:19;;;;;;;;;49.75;40.00;;;;;11.69;43.40;102196.81;4975765;28;45381;-71
2022/03/26 04:58:08;;;;;;;;;56.75;44.75;;;;;11.69;43.18;102199.47;4979248;28;45421;-71
2022/03/26 05:00:36;;;;;;;;;56.75;44.75;;;;;11.80;43.04;102207.50;4997544;28;47961;-72
2022/03/26 05:03:07;;;;;;;;;47.00;39.00;;;;;11.71;43.84;102199.34;4981631;28;45677;-71
2022/03/26 05:05:35;;;;;;;;;57.25;44.25;;;;;11.63;43.35;102201.75;4980526;28;45331;-71
2022/03/26 05:08:01;;;;;;;;;53.25;43.50;;;;;11.61;43.84;102185.00;4997451;28;45530;-70
2022/03/26 05:10:28;;;;;;;;;54.00;44.00;;;;;11.63;43.47;102196.44;4999048;28;45242;-70
2022/03/26 05:12:55;;;;;;;;;55.75;44.75;;;;;11.57;43.27;102200.38;4998362;28;45400;-70
2022/03/26 05:15:22;;;;;;;;;55.50;44.25;;;;;11.71;43.45;102220.66;4998618;28;45519;-69
2022/03/26 05:17:48;;;;;;;;;58.50;45.50;;;;;11.73;43.30;102240.91;4980801;28;45640;-70
2022/03/26 05:20:14;;;;;;;;;51.00;42.50;;;;;11.54;43.66;102192.63;4998955;28;46285;-70
2022/03/26 05:22:47;;;;;;;;;60.00;45.25;;;;;11.70;43.23;102218.97;4996047;28;45488;-70
2022/03/26 05:25:14;;;;;;;;;56.00;45.00;;;;;11.18;43.31;102149.13;4993254;28;45377;-69
2022/03/26 05:27:52;;;;;;;;;59.25;44.75;;;;;11.41;43.98;102211.34;4979344;28;45460;-69
2022/03/26 05:30:19;;;;;;;;;59.00;46.00;;;;;11.53;43.94;102225.56;4997534;28;45444;-72
2022/03/26 05:32:45;;;;;;;;;51.25;40.25;;;;;11.45;43.52;102196.00;4980254;28;45677;-70
2022/03/26 05:35:14;;;;;;;;;51.25;42.50;;;;;11.62;43.30;102226.69;4979890;28;45543;-71
2022/03/26 05:37:41;;;;;;;;;60.00;46.00;;;;;11.49;44.08;102226.75;4998797;28;45232;-70
2022/03/26 05:40:18;;;;;;;;;57.00;46.25;;;;;11.36;43.41;102201.97;4980228;28;47080;-72
2022/03/26 05:42:48;;;;;;;;;53.00;44.00;;;;;11.61;43.81;102232.97;4981049;28;45541;-68
2022/03/26 05:45:14;;;;;;;;;53.25;41.75;;;;;11.61;43.91;102240.94;4997521;28;45334;-69
2022/03/26 05:47:40;;;;;;;;;57.25;43.25;;;;;11.45;43.87;102236.78;4980390;28;45590;-69
2022/03/26 05:50:09;;;;;;;;;50.00;40.00;;;;;11.47;43.78;102239.31;4998066;28;46539;-70
2022/03/26 05:52:34;;;;;;;;;61.50;46.00;;;;;11.30;44.45;102235.25;4998143;28;45280;-72
2022/03/26 05:55:00;;;;;;;;;57.50;44.25;;;;;11.32;44.30;102245.78;4979787;28;45551;-69
2022/03/26 05:57:25;;;;;;;;;56.50;44.50;;;;;11.27;44.09;102244.31;4996794;28;45355;-70
2022/03/26 05:59:51;;;;;;;;;57.25;45.75;;;;;11.18;44.60;102252.94;4996519;28;46541;-69
2022/03/26 06:02:16;;;;;;;;;60.00;45.50;;;;;11.17;44.73;102259.22;4998139;28;45535;-69
2022/03/26 06:04:43;;;;;;;;;56.50;44.75;;;;;10.90;44.08;102192.88;4979511;28;45386;-69
2022/03/26 06:07:09;;;;;;;;;62.00;44.75;;;;;11.15;44.47;102231.03;4991921;28;45504;-71
2022/03/26 06:09:36;;;;;;;;;56.50;43.75;;;;;11.33;44.38;102250.13;4997882;28;45524;-71
2022/03/26 06:12:01;;;;;;;;;58.25;44.75;;;;;11.40;44.06;102235.41;4980180;28;45604;-70
2022/03/26 06:14:27;;;;;;;;;50.75;40.50;;;;;11.48;43.68;102238.38;4980242;28;45476;-69
2022/03/26 06:16:52;;;;;;;;;54.00;42.00;;;;;11.62;43.39;102254.19;4977077;28;45409;-71
2022/03/26 06:19:18;;;;;;;;;53.50;41.25;;;;;11.08;43.25;102142.78;4977849;28;45858;-69
2022/03/26 06:21:43;;;;;;;;;53.25;41.50;;;;;11.83;43.15;102260.59;4991803;28;45952;-71
2022/03/26 06:24:12;;;;;;;;;43.75;37.75;;;;;11.88;43.02;102261.09;4979925;28;45376;-70
2022/03/26 06:26:39;;;;;;;;;54.25;44.00;;;;;11.82;43.06;102266.06;4985685;28;45330;-69
2022/03/26 06:29:07;;;;;;;;;57.00;41.75;;;;;11.78;43.50;102257.41;4977134;28;45306;-70
2022/03/26 06:31:33;;;;;;;;;60.75;46.50;;;;;11.79;43.16;102261.78;4992142;28;45342;-70
2022/03/26 06:33:58;;;;;;;;;58.50;45.00;;;;;11.87;43.05;102258.56;4979463;28;45299;-69
2022/03/26 06:36:26;;;;;;;;;52.50;42.75;;;;;11.97;42.53;102269.34;4975678;28;45557;-70
2022/03/26 06:38:52;;;;;;;;;57.00;46.00;;;;;11.82;43.00;102256.25;4993479;28;45540;-70
2022/03/26 06:41:17;;;;;;;;;51.00;38.50;;;;;11.92;42.78;102269.72;4997017;28;45436;-71
2022/03/26 06:43:44;;;;;;;;;51.75;40.25;;;;;11.98;43.14;102273.72;4996363;28;45331;-70
2022/03/26 06:46:09;;;;;;;;;62.00;46.75;;;;;11.87;42.89;102274.53;4979449;28;45348;-70
2022/03/26 06:48:36;;;;;;;;;53.75;42.25;;;;;11.91;43.11;102280.50;4997104;28;45659;-70
2022/03/26 06:51:02;;;;;;;;;57.25;45.00;;;;;11.27;42.93;102185.72;4997417;28;45540;-69
2022/03/26 06:53:29;;;;;;;;;59.00;47.25;;;;;11.57;42.80;102214.53;4979296;28;45498;-71
2022/03/26 06:55:55;;;;;;;;;62.00;46.75;;;;;11.79;43.13;102264.44;4978895;28;45588;-72
2022/03/26 06:58:20;;;;;;;;;54.75;46.00;;;;;11.75;42.95;102230.97;4979251;28;48157;-71
2022/03/26 07:00:46;;;;;;;;;56.50;46.00;;;;;11.24;42.56;102155.81;4978145;28;45575;-70
2022/03/26 07:03:11;;;;;;;;;57.75;44.75;;;;;12.19;42.83;102290.75;4997476;28;45312;-71
2022/03/26 07:05:37;;;;;;;;;58.25;45.00;;;;;12.48;42.11;102292.06;4996831;28;45331;-72
2022/03/26 07:08:03;;;;;;;;;61.25;45.75;;;;;12.90;40.93;102292.34;4995633;28;46362;-71
2022/03/26 07:10:29;;;;;;;;;55.50;45.00;;;;;13.42;40.09;102290.88;4996786;28;45406;-72
2022/03/26 07:12:54;;;;;;;;;57.75;46.00;;;;;13.98;38.56;102306.69;4995234;28;45269;-70
2022/03/26 07:15:20;;;;;;;;;56.25;45.50;;;;;14.10;37.98;102294.13;4996681;28;45279;-70
2022/03/26 07:17:45;;;;;;;;;63.00;48.00;;;;;14.45;37.91;102309.91;4977708;28;48290;-70
2022/03/26 07:20:11;;;;;;;;;62.75;50.50;;;;;14.69;36.76;102313.16;4981531;28;45268;-71
2022/03/26 07:22:37;;;;;;;;;56.50;45.25;;;;;14.84;37.04;102319.03;4999200;28;45571;-70
2022/03/26 07:25:04;;;;;;;;;63.00;51.25;;;;;15.14;36.67;102324.34;4982415;28;45276;-71
2022/03/26 07:27:33;;;;;;;;;65.00;50.50;;;;;15.29;35.63;102314.13;4977538;28;47210;-69
2022/03/26 07:30:00;;;;;;;;;62.75;49.75;;;;;15.52;35.57;102318.25;4980570;28;45313;-71
2022/03/26 07:32:29;;;;;;;;;61.00;47.75;;;;;15.77;35.00;102311.56;4989698;28;47000;-70
2022/03/26 07:35:00;;;;;;;;;59.25;47.50;;;;;15.99;34.07;102321.16;4982706;28;45547;-70
2022/03/26 07:37:29;;;;;;;;;56.75;46.25;;;;;16.03;34.21;102298.47;4964524;28;47115;-68
2022/03/26 07:39:55;;;;;;;;;55.00;45.25;;;;;16.21;33.58;102313.81;4982273;28;45404;-70
2022/03/26 07:42:20;;;;;;;;;48.50;43.00;;;;;15.96;32.99;102254.38;4999593;28;45363;-78
2022/03/26 07:44:45;;;;;;;;;52.25;41.50;;;;;16.40;33.14;102313.78;4981083;28;45354;-71
2022/03/26 07:47:11;;;;;;;;;52.75;43.25;;;;;16.55;32.48;102304.31;4993771;28;47559;-69
2022/03/26 07:49:37;;;;;;;;;59.50;46.50;;;;;16.89;32.11;102328.84;4978510;28;45595;-70
2022/03/26 07:52:03;;;;;;;;;55.50;43.75;;;;;17.10;32.19;102312.50;4997088;28;45290;-71
2022/03/26 07:54:29;;;;;;;;;61.00;46.75;;;;;17.24;31.45;102336.19;4997979;28;45467;-73
2022/03/26 07:56:55;;;;;;;;;51.75;41.75;;;;;17.39;31.42;102325.78;4993713;28;45500;-70
2022/03/26 07:59:20;;;;;;;;;52.00;42.25;;;;;17.50;30.99;102297.84;4996567;28;45476;-70
2022/03/26 08:01:46;;;;;;;;;62.50;49.00;;;;;17.68;30.55;102298.75;4998778;28;45307;-69
2022/03/26 08:04:12;;;;;;;;;56.25;43.25;;;;;18.01;30.45;102329.47;4999763;28;45426;-71
2022/03/26 08:06:37;;;;;;;;;49.75;39.50;;;;;18.07;30.05;102303.81;4997803;28;45868;-73
2022/03/26 08:09:03;;;;;;;;;54.75;43.00;;;;;18.19;29.89;102326.78;5016107;28;45907;-70
2022/03/26 08:11:28;;;;;;;;;54.00;43.00;;;;;18.19;29.44;102289.94;5008692;28;45503;-73
2022/03/26 08:13:54;;;;;;;;;56.75;45.75;;;;;18.52;29.21;102326.03;4983168;28;45204;-72
2022/03/26 08:16:20;;;;;;;;;56.50;45.00;;;;;18.50;29.01;102324.53;4999327;28;45628;-73
2022/03/26 08:18:46;;;;;;;;;60.25;47.25;;;;;18.22;29.77;102321.13;4999300;28;45365;-70
2022/03/26 08:21:12;;;;;;;;;41.00;34.00;;;;;18.32;29.53;102288.69;4980905;28;45565;-74
2022/03/26 08:23:37;;;;;;;;;55.75;43.50;;;;;18.75;29.01;102293.22;4981006;28;45681;-72
2022/03/26 08:28:58;;;;;;;;;48.25;39.50;;;;;19.21;27.40;102318.03;5000195;28;45372;-71
2022/03/26 08:31:31;;;;;;;;;54.25;45.00;;;;;19.52;27.34;102332.66;4981827;28;45568;-72
2022/03/26 08:34:26;;;;;;;;;56.25;44.75;;;;;19.07;27.27;102269.13;4996669;28;45977;-73
2022/03/26 08:36:52;;;;;;;;;52.67;43.00;;;;;19.45;26.30;102337.03;4995757;28;46255;-71
2022/03/26 08:39:18;;;;;;;;;55.67;42.67;;;;;19.04;26.88;102257.84;4997041;28;45674;-76
2022/03/26 08:41:45;;;;;;;;;50.25;39.00;;;;;19.24;26.04;102275.44;4981182;28;45413;-72
2022/03/26 08:44:17;;;;;;;;;56.25;44.75;;;;;19.47;26.10;102291.00;4981446;28;45503;-72
2022/03/26 08:46:53;;;;;;;;;;;;;;;;;;;;;
2022/03/26 08:49:19;;;;;;;;;43.50;37.50;;;;;19.57;25.89;102286.31;4997472;28;72727;-72
2022/03/26 08:51:52;;;;;;;;;52.50;42.00;;;;;20.30;25.35;102335.00;4980921;28;45526;-70
2022/03/26 08:54:29;;;;;;;;;48.33;38.67;;;;;20.58;24.72;102303.06;4998856;28;45567;-71
2022/03/26 08:56:54;;;;;;;;;55.33;42.00;;;;;20.40;24.78;102241.09;4998187;28;46561;-72
2022/03/26 08:59:38;;;;;;;;;49.75;38.75;;;;;21.60;24.26;102337.38;4981163;28;45519;-70
2022/03/26 09:02:06;;;;;;;;;52.00;43.00;;;;;21.71;23.44;102257.63;5010122;28;45483;-73
2022/03/26 09:04:50;;;;;;;;;55.75;44.75;;;;;22.01;22.73;102318.13;4992189;28;45445;-75
2022/03/26 09:07:22;;;;;;;;;50.00;40.00;;;;;22.30;22.93;102334.53;4979705;28;47661;-71
2022/03/26 09:09:47;;;;;;;;;46.00;37.00;;;;;22.63;22.23;102328.81;4994953;28;46235;-70
2022/03/26 09:12:13;;;;;;;;;57.25;44.25;;;;;22.68;21.89;102319.09;4996896;28;45559;-69
2022/03/26 09:14:38;;;;;;;;;45.00;38.67;;;;;22.62;22.25;102300.00;4998651;28;45433;-71
2022/03/26 09:17:03;;;;;;;;;51.00;40.67;;;;;22.97;21.69;102298.47;4997008;28;47520;-69
2022/03/26 09:19:29;;;;;;;;;57.50;46.00;;;;;23.12;21.83;102318.28;4995447;28;45620;-71
2022/03/26 09:21:54;;;;;;;;;51.25;42.75;;;;;22.91;21.54;102304.63;4979537;28;45469;-71
2022/03/26 09:24:20;;;;;;;;;52.25;42.50;;;;;22.95;21.52;102305.94;4997493;28;45628;-72
2022/03/26 09:26:48;;;;;;;;;62.00;48.25;;;;;23.16;21.72;102308.72;4979708;28;47344;-70
2022/03/26 09:29:29;;;;;;;;;54.75;42.75;;;;;23.86;20.55;102305.41;4979917;28;45192;-70
2022/03/26 09:31:55;;;;;;;;;51.33;39.00;;;;;24.33;20.66;102317.56;4975117;28;45454;-71
2022/03/26 09:34:39;;;;;;;;;51.00;41.50;;;;;25.11;19.77;102315.59;4980183;28;45559;-71
2022/03/26 09:37:25;;;;;;;;;40.00;35.00;;;;;25.60;18.72;102239.06;4976956;28;46980;-70
2022/03/26 09:39:51;;;;;;;;;52.50;41.00;;;;;26.44;18.30;102290.31;4957367;28;45315;-70
2022/03/26 09:42:22;;;;;;;;;50.00;40.00;;;;;26.83;18.33;102305.78;4997293;28;45520;-72
2022/03/26 09:44:50;;;;;;;;;45.25;38.25;;;;;27.46;16.94;102303.25;4998373;28;45422;-70
2022/03/26 09:47:16;;;;;;;;;55.67;45.00;;;;;27.18;17.57;102311.75;4979713;28;47648;-72
2022/03/26 09:49:42;;;;;;;;;57.00;44.67;;;;;27.75;17.11;102281.88;4997094;28;45292;-69
2022/03/26 09:52:07;;;;;;;;;54.00;43.25;;;;;27.93;16.60;102317.47;4998159;28;46284;-69
2022/03/26 09:54:37;;;;;;;;;59.67;45.67;;;;;27.96;16.50;102311.56;4996501;28;45432;-73
2022/03/26 09:57:04;;;;;;;;;53.00;42.75;;;;;27.35;17.33;102314.84;4997256;28;46070;-72
2022/03/26 09:59:29;;;;;;;;;47.00;39.33;;;;;27.83;16.66;102249.66;4979316;28;45537;-70
2022/03/26 10:01:55;;;;;;;;;47.50;39.75;;;;;27.99;16.67;102294.72;4978989;28;45623;-70
2022/03/26 10:04:26;;;;;;;;;51.25;43.50;;;;;26.76;17.73;102306.81;4980049;28;45591;-70
2022/03/26 10:06:52;;;;;;;;;45.67;36.67;;;;;26.21;18.72;102317.97;4978539;28;48534;-73
2022/03/26 10:09:38;;;;;;;;;47.33;37.00;;;;;25.48;18.86;102289.75;4996837;28;45256;-73
2022/03/26 10:12:05;;;;;;;;;53.33;42.67;;;;;24.99;19.68;102301.69;4977296;28;45711;-70
2022/03/26 10:14:41;;;;;;;;;52.50;43.50;;;;;24.49;19.67;102289.25;4977073;28;45676;-74
2022/03/26 10:17:19;;;;;;;;;55.50;44.25;;;;;24.25;20.36;102304.09;4977544;28;47687;-70
2022/03/26 10:20:09;;;;;;;;;49.00;39.50;;;;;24.00;20.90;102291.94;4980301;28;45528;-72
2022/03/26 10:22:56;;;;;;;;;60.25;46.50;;;;;23.09;21.96;102306.97;4999670;28;45551;-71
2022/03/26 10:25:23;;;;;;;;;53.50;43.00;;;;;22.48;22.69;102304.41;4996317;28;45596;-70
2022/03/26 10:27:50;;;;;;;;;56.25;43.00;;;;;21.65;23.63;102304.38;4995763;28;45922;-70
2022/03/26 10:33:28;;;;;;;;;57.25;44.75;;;;;20.59;25.21;102310.16;4997189;28;46417;-68
2022/03/26 10:36:02;;;;;;;;;42.75;37.50;;;;;20.35;25.36;102314.56;4979297;28;45374;-73
2022/03/26 10:38:37;;;;;;;;;54.25;42.75;;;;;20.00;25.00;102255.50;4997089;28;45739;-70
2022/03/26 10:41:07;;;;;;;;;52.75;41.50;;;;;20.26;25.05;102302.06;4979934;28;45471;-71
2022/03/26 10:43:33;;;;;;;;;53.25;40.50;;;;;20.09;24.75;102302.25;4979740;28;45458;-71
2022/03/26 10:46:01;;;;;;;;;58.25;42.75;;;;;19.03;25.22;102148.34;4976469;28;46557;-71
2022/03/26 10:49:01;;;;;;;;;55.75;42.75;;;;;19.85;25.39;102298.53;4990490;28;46257;-70
2022/03/26 10:51:36;;;;;;;;;54.00;42.50;;;;;19.57;25.30;102303.34;4977931;28;45460;-71
2022/03/26 10:54:11;;;;;;;;;56.75;43.75;;;;;18.94;25.66;102233.69;4976054;28;45444;-74
2022/03/26 10:56:38;;;;;;;;;60.00;45.25;;;;;19.23;26.10;102299.88;4985662;28;45467;-71
2022/03/26 10:59:04;;;;;;;;;56.25;44.50;;;;;18.89;26.08;102287.25;4977477;28;46262;-71
2022/03/26 11:01:30;;;;;;;;;59.25;43.00;;;;;18.79;25.92;102270.34;4976916;28;46040;-74
2022/03/26 11:03:57;;;;;;;;;54.50;44.25;;;;;18.92;25.67;102278.84;4975408;28;45506;-71
2022/03/26 11:06:26;;;;;;;;;55.75;41.25;;;;;18.22;26.26;102181.97;4993509;28;45392;-70
2022/03/26 11:08:59;;;;;;;;;48.50;33.75;;;;;18.77;26.26;102289.34;4978429;28;48171;-69
2022/03/26 11:11:29;;;;;;;;;62.25;48.50;;;;;18.55;26.33;102266.47;4996288;28;45499;-75
2022/03/26 11:14:07;;;;;;;;;65.50;48.75;;;;;18.39;26.74;102269.06;4978983;28;45326;-73
2022/03/26 11:17:06;;;;;;;;;49.25;36.50;;;;;18.59;26.85;102287.69;4978850;28;45495;-77